Time;durP1;ratioP1;P1;durP2;ratioP2;P2;SDS_P1;SDS_P2;PMS_P1;PMS_P2;Temp;Humidity;BMP_temperature;BMP_pressure;BME280_temperature;BME280_humidity;BME280_pressure;Samples;Min_cycle;Max_cycle;Signal;HPM_P1;HPM_P2
2023/03/26 00:00:56;;;;;;;13.63;3.05;;;7.20;99.90;;;;;;5004158;28;20060;-63
2023/03/26 00:03:21;;;;;;;;;;;7.20;99.90;;;;;;5007773;28;20325;-82
2023/03/26 00:05:48;;;;;;;24.23;3.43;;;7.20;99.90;;;;;;5010064;28;19917;-64
2023/03/26 00:08:15;;;;;;;13.70;3.70;;;7.20;99.90;;;;;;5012903;28;20033;-63
2023/03/26 00:10:42;;;;;;;13.60;3.42;;;7.20;99.90;;;;;;5010329;28;20443;-64
2023/03/26 00:13:08;;;;;;;7.72;3.08;;;7.20;99.90;;;;;;5016055;28;20337;-63
2023/03/26 00:15:35;;;;;;;8.68;3.97;;;7.10;99.90;;;;;;5015135;28;20030;-63
2023/03/26 00:18:01;;;;;;;10.90;3.45;;;7.20;99.90;;;;;;4997681;28;20033;-63
2023/03/26 00:20:28;;;;;;;14.30;3.97;;;7.10;99.90;;;;;;5008539;28;20317;-81
2023/03/26 00:22:54;;;;;;;9.27;3.28;;;7.10;99.90;;;;;;5005084;28;20025;-63
2023/03/26 00:25:22;;;;;;;7.20;3.27;;;7.10;99.90;;;;;;5003708;28;20029;-63
2023/03/26 00:27:48;;;;;;;7.13;3.28;;;7.10;99.90;;;;;;5006449;28;20038;-82
2023/03/26 00:30:15;;;;;;;8.38;3.53;;;7.10;99.90;;;;;;5011085;28;20030;-63
2023/03/26 00:32:42;;;;;;;12.32;3.28;;;7.10;99.90;;;;;;5013275;28;20057;-82
2023/03/26 00:35:08;;;;;;;13.68;3.75;;;7.10;99.90;;;;;;5016654;28;20933;-63
2023/03/26 00:37:33;;;;;;;11.37;3.00;;;7.00;99.90;;;;;;5009027;28;20089;-65
2023/03/26 00:40:06;;;;;;;7.60;3.10;;;7.00;99.90;;;;;;5009312;28;20283;-63
2023/03/26 00:42:32;;;;;;;10.48;3.20;;;7.00;99.90;;;;;;4998682;28;20038;-63
2023/03/26 00:44:59;;;;;;;13.13;3.17;;;7.10;99.90;;;;;;5009357;28;20121;-63
2023/03/26 00:47:26;;;;;;;7.88;3.55;;;7.00;99.90;;;;;;4997232;28;20045;-63
2023/03/26 00:49:52;;;;;;;11.25;3.97;;;7.00;99.90;;;;;;5005601;28;20030;-63
2023/03/26 00:52:18;;;;;;;8.03;3.63;;;6.90;99.90;;;;;;5013564;28;20169;-63
2023/03/26 00:54:47;;;;;;;12.93;3.43;;;6.90;99.90;;;;;;5004360;28;20022;-64
2023/03/26 00:57:13;;;;;;;9.98;3.75;;;6.90;99.90;;;;;;4997432;28;20045;-63
2023/03/26 00:59:40;;;;;;;15.68;4.65;;;6.90;99.90;;;;;;5012980;28;20105;-80
2023/03/26 01:02:09;;;;;;;9.85;3.80;;;6.90;99.90;;;;;;5015729;28;20038;-64
2023/03/26 01:04:36;;;;;;;10.55;4.47;;;7.00;99.90;;;;;;5012717;28;20058;-63
2023/03/26 01:07:27;;;;;;;16.90;3.83;;;7.00;99.90;;;;;;5008491;28;20033;-63
2023/03/26 01:09:58;;;;;;;9.80;3.30;;;7.00;99.90;;;;;;5010633;28;20039;-63
2023/03/26 01:12:27;;;;;;;8.93;3.55;;;7.00;99.90;;;;;;5008195;28;20333;-63
2023/03/26 01:14:55;;;;;;;12.25;4.43;;;7.10;99.90;;;;;;5000150;28;20332;-74
2023/03/26 01:17:22;;;;;;;7.35;3.33;;;7.00;99.90;;;;;;5016345;28;20040;-63
2023/03/26 01:20:16;;;;;;;6.80;3.50;;;7.00;99.90;;;;;;5012514;28;20038;-63
2023/03/26 01:22:48;;;;;;;8.48;3.75;;;7.00;99.90;;;;;;5000299;28;20086;-63
2023/03/26 01:25:14;;;;;;;10.90;3.88;;;7.00;99.90;;;;;;4999368;28;20172;-63
2023/03/26 01:27:52;;;;;;;8.50;4.32;;;7.00;99.90;;;;;;5007488;28;20069;-81
2023/03/26 01:30:22;;;;;;;10.40;4.28;;;7.00;99.90;;;;;;5013479;28;20157;-63
2023/03/26 01:33:12;;;;;;;12.93;4.93;;;6.90;99.90;;;;;;4983073;28;20061;-63
2023/03/26 01:36:00;;;;;;;17.38;5.03;;;6.90;99.90;;;;;;4999311;28;20121;-63
2023/03/26 01:38:45;;;;;;;11.90;5.20;;;6.90;99.90;;;;;;5012824;28;20018;-64
2023/03/26 01:41:28;;;;;;;14.25;5.28;;;7.00;99.90;;;;;;4998254;28;20034;-63
2023/03/26 01:44:14;;;;;;;19.70;5.97;;;7.00;99.90;;;;;;5006085;28;20317;-63
2023/03/26 01:46:40;;;;;;;19.17;5.85;;;6.90;99.90;;;;;;5001118;28;20037;-81
2023/03/26 01:49:11;;;;;;;12.93;4.78;;;7.00;99.90;;;;;;5003160;28;20046;-63
2023/03/26 01:51:39;;;;;;;17.02;5.72;;;7.00;99.90;;;;;;4997215;28;20049;-63
2023/03/26 01:54:10;;;;;;;11.80;5.20;;;6.90;99.90;;;;;;5010702;28;20073;-63
2023/03/26 01:57:17;;;;;;;9.85;5.18;;;6.90;99.90;;;;;;5006388;28;20033;-63
2023/03/26 02:00:10;;;;;;;7.68;4.38;;;6.90;99.90;;;;;;5002301;28;20037;-69
2023/03/26 02:02:44;;;;;;;9.15;4.63;;;6.80;99.90;;;;;;4998982;28;20049;-63
2023/03/26 02:05:21;;;;;;;8.68;4.20;;;6.70;99.90;;;;;;5004509;28;20019;-62
2023/03/26 02:07:49;;;;;;;13.95;4.65;;;6.60;99.90;;;;;;5000356;28;20077;-63
2023/03/26 02:10:21;;;;;;;6.20;4.43;;;6.40;99.90;;;;;;4995558;28;20034;-62
2023/03/26 02:12:48;;;;;;;12.00;4.68;;;6.30;99.90;;;;;;5006750;28;20051;-63
2023/03/26 02:15:15;;;;;;;16.95;5.85;;;6.30;99.90;;;;;;5002529;28;20040;-63
2023/03/26 02:17:40;;;;;;;18.98;6.40;;;6.30;99.90;;;;;;5002681;28;20026;-80
2023/03/26 02:20:11;;;;;;;12.30;4.70;;;6.30;99.90;;;;;;4997609;28;20526;-63
2023/03/26 02:22:44;;;;;;;6.28;4.20;;;6.20;99.90;;;;;;5000913;28;20037;-63
2023/03/26 02:25:16;;;;;;;13.00;5.55;;;6.10;99.90;;;;;;5005442;28;20030;-63
2023/03/26 02:27:43;;;;;;;12.80;5.28;;;6.00;99.90;;;;;;4995640;28;20030;-80
2023/03/26 02:30:12;;;;;;;10.00;5.97;;;5.90;99.90;;;;;;4994962;28;20023;-63
2023/03/26 02:32:38;;;;;;;19.10;7.07;;;5.90;99.90;;;;;;4997782;28;20033;-77
2023/03/26 02:35:05;;;;;;;19.30;6.90;;;5.90;99.90;;;;;;4995141;28;20026;-63
2023/03/26 02:37:32;;;;;;;12.70;6.63;;;5.90;99.90;;;;;;4995157;28;20038;-80
2023/03/26 02:39:59;;;;;;;11.70;5.80;;;6.00;99.90;;;;;;4993619;28;20172;-63
2023/03/26 02:42:25;;;;;;;;;;;6.10;99.90;;;;;;4997974;28;20030;-63
2023/03/26 02:44:51;;;;;;;69.45;6.32;;;6.00;99.90;;;;;;4998831;28;19960;-63
2023/03/26 02:47:16;;;;;;;16.93;5.87;;;6.00;99.90;;;;;;4994797;28;20034;-62
2023/03/26 02:49:42;;;;;;;59.73;6.63;;;6.00;99.90;;;;;;4994488;28;20067;-82
2023/03/26 02:52:08;;;;;;;66.27;7.03;;;5.90;99.90;;;;;;4994374;28;20015;-62
2023/03/26 02:54:34;;;;;;;21.83;8.50;;;5.80;99.90;;;;;;4999232;28;20105;-63
2023/03/26 02:57:00;;;;;;;15.47;8.90;;;5.80;99.90;;;;;;4994671;28;20023;-63
2023/03/26 02:59:26;;;;;;;29.03;8.53;;;5.90;99.90;;;;;;4995191;28;20054;-62
2023/03/26 03:01:52;;;;;;;17.67;8.30;;;6.00;99.90;;;;;;4995346;28;20288;-63
2023/03/26 03:04:18;;;;;;;19.38;8.45;;;6.00;99.90;;;;;;5002879;28;20031;-63
2023/03/26 03:06:44;;;;;;;13.07;6.53;;;6.00;99.90;;;;;;4996447;28;20436;-64
2023/03/26 03:09:11;;;;;;;30.40;7.57;;;5.90;99.90;;;;;;5003778;28;20260;-63
2023/03/26 03:11:38;;;;;;;15.90;7.47;;;5.80;99.90;;;;;;4999090;28;20106;-62
2023/03/26 03:14:04;;;;;;;18.63;7.70;;;5.80;99.90;;;;;;5001081;28;20121;-63
2023/03/26 03:16:31;;;;;;;22.73;8.30;;;5.80;99.90;;;;;;4999176;28;20672;-62
2023/03/26 03:18:57;;;;;;;20.92;8.23;;;5.80;99.90;;;;;;5021436;28;20274;-63
2023/03/26 03:21:24;;;;;;;15.13;7.37;;;5.90;99.90;;;;;;5016993;28;20060;-63
2023/03/26 03:23:50;;;;;;;16.88;7.25;;;5.90;99.90;;;;;;5011661;28;20109;-63
2023/03/26 03:26:20;;;;;;;14.57;8.40;;;5.90;99.90;;;;;;5010973;28;20121;-62
2023/03/26 03:28:46;;;;;;;17.80;7.85;;;5.90;99.90;;;;;;5007946;28;20068;-63
2023/03/26 03:31:12;;;;;;;15.07;6.85;;;5.90;99.90;;;;;;5004561;28;20439;-62
2023/03/26 03:33:40;;;;;;;13.40;7.97;;;5.90;99.90;;;;;;4994300;28;20109;-76
2023/03/26 03:36:09;;;;;;;18.85;8.45;;;6.00;99.90;;;;;;5002296;28;20298;-62
2023/03/26 03:38:39;;;;;;;14.10;7.78;;;6.00;99.90;;;;;;4988804;28;20065;-63
2023/03/26 03:41:05;;;;;;;16.58;8.48;;;6.10;99.90;;;;;;5007995;28;20042;-62
2023/03/26 03:43:34;;;;;;;21.23;9.43;;;6.20;99.90;;;;;;5005362;28;20032;-62
2023/03/26 03:46:00;;;;;;;19.35;9.43;;;6.20;99.90;;;;;;5000893;28;20029;-63
2023/03/26 03:48:26;;;;;;;24.08;10.63;;;6.30;99.90;;;;;;5003417;28;20117;-62
2023/03/26 03:50:53;;;;;;;27.92;10.18;;;6.30;99.90;;;;;;4998211;28;20773;-63
2023/03/26 03:53:20;;;;;;;24.50;10.63;;;6.40;99.90;;;;;;5014808;28;20029;-81
2023/03/26 03:55:52;;;;;;;34.33;11.40;;;6.40;99.90;;;;;;5016883;28;20046;-63
2023/03/26 03:58:20;;;;;;;22.48;10.10;;;6.40;99.90;;;;;;5017769;28;20030;-63
2023/03/26 04:00:48;;;;;;;34.15;10.07;;;6.50;99.90;;;;;;5018062;28;20030;-81
2023/03/26 04:03:14;;;;;;;21.40;10.32;;;6.50;99.90;;;;;;5011786;28;20429;-62
2023/03/26 04:05:39;;;;;;;19.13;8.97;;;6.50;99.90;;;;;;5016684;28;20037;-81
2023/03/26 04:08:05;;;;;;;25.53;10.17;;;6.50;99.90;;;;;;5015979;28;20053;-63
2023/03/26 04:10:32;;;;;;;28.40;9.50;;;6.60;99.90;;;;;;5017295;28;20072;-63
2023/03/26 04:12:57;;;;;;;28.00;9.18;;;6.60;99.90;;;;;;5010150;28;20050;-62
2023/03/26 04:15:23;;;;;;;36.63;9.80;;;6.60;99.90;;;;;;4998390;28;20488;-62
2023/03/26 04:17:50;;;;;;;19.00;8.93;;;6.60;99.90;;;;;;5005227;28;20022;-80
2023/03/26 04:20:18;;;;;;;33.72;10.95;;;6.70;99.90;;;;;;5015116;28;20030;-62
2023/03/26 04:22:44;;;;;;;20.58;9.10;;;6.70;99.90;;;;;;4991345;28;20038;-64
2023/03/26 04:25:11;;;;;;;18.60;8.57;;;6.70;99.90;;;;;;5010958;28;20026;-62
2023/03/26 04:27:37;;;;;;;24.92;8.85;;;6.80;99.90;;;;;;5016000;28;20022;-63
2023/03/26 04:30:05;;;;;;;33.10;8.30;;;6.80;99.90;;;;;;5017147;28;20472;-62
2023/03/26 04:32:33;;;;;;;24.67;8.20;;;6.80;99.90;;;;;;5010198;28;20423;-62
2023/03/26 04:35:02;;;;;;;28.17;8.65;;;6.80;99.90;;;;;;5015416;28;20053;-62
2023/03/26 04:37:39;;;;;;;29.48;8.55;;;6.80;99.90;;;;;;5012020;28;20022;-62
2023/03/26 04:40:10;;;;;;;25.92;9.02;;;6.80;99.90;;;;;;4996542;28;20030;-63
2023/03/26 04:42:40;;;;;;;37.78;8.82;;;6.80;99.90;;;;;;5011006;28;20049;-63
2023/03/26 04:45:07;;;;;;;28.23;8.65;;;6.90;99.90;;;;;;5014945;28;20062;-62
2023/03/26 04:47:35;;;;;;;24.13;8.57;;;6.90;99.90;;;;;;5015721;28;20046;-62
2023/03/26 04:50:06;;;;;;;32.15;10.02;;;6.80;99.90;;;;;;5004208;28;20058;-63
2023/03/26 04:52:32;;;;;;;25.77;8.20;;;6.80;99.90;;;;;;5008655;28;20113;-63
2023/03/26 04:54:58;;;;;;;34.67;8.67;;;6.70;99.90;;;;;;5009374;28;20117;-62
2023/03/26 04:57:33;;;;;;;38.50;9.07;;;6.70;99.90;;;;;;5006312;28;20379;-63
2023/03/26 04:59:59;;;;;;;28.35;7.57;;;6.70;99.90;;;;;;5002564;28;20032;-63
2023/03/26 05:02:25;;;;;;;20.73;7.67;;;6.70;99.90;;;;;;4998935;28;20121;-63
2023/03/26 05:04:51;;;;;;;21.20;7.10;;;6.70;99.90;;;;;;4997749;28;20406;-80
2023/03/26 05:07:21;;;;;;;26.87;7.07;;;6.60;99.90;;;;;;4996841;28;20030;-63
2023/03/26 05:09:46;;;;;;;27.67;7.28;;;6.60;99.90;;;;;;4998074;28;20378;-62
2023/03/26 05:12:13;;;;;;;30.43;7.03;;;6.80;99.90;;;;;;4998668;28;20042;-77
2023/03/26 05:14:39;;;;;;;51.33;9.05;;;6.90;99.90;;;;;;5006391;28;20026;-63
2023/03/26 05:17:10;;;;;;;49.03;8.67;;;6.90;99.90;;;;;;4996467;28;20045;-63
2023/03/26 05:19:37;;;;;;;39.65;8.35;;;6.90;99.90;;;;;;4996647;28;20018;-62
2023/03/26 05:22:03;;;;;;;32.72;8.52;;;7.00;99.90;;;;;;5000395;28;20060;-63
2023/03/26 05:24:29;;;;;;;43.87;8.30;;;7.10;99.90;;;;;;5001623;28;20026;-63
2023/03/26 05:26:55;;;;;;;42.27;9.57;;;7.10;99.90;;;;;;4996148;28;20026;-63
2023/03/26 05:29:22;;;;;;;42.87;9.70;;;7.20;99.90;;;;;;4995660;28;21009;-81
2023/03/26 05:31:49;;;;;;;44.25;9.85;;;7.20;99.90;;;;;;4997600;28;20110;-63
2023/03/26 05:34:14;;;;;;;30.33;9.77;;;7.30;99.90;;;;;;4996806;28;20049;-63
2023/03/26 05:36:41;;;;;;;44.70;9.50;;;7.30;99.90;;;;;;4998251;28;20062;-63
2023/03/26 05:39:07;;;;;;;49.60;10.30;;;7.30;99.90;;;;;;4996493;28;20018;-63
2023/03/26 05:41:33;;;;;;;58.35;11.45;;;7.40;99.90;;;;;;4997986;28;20073;-63
2023/03/26 05:43:59;;;;;;;59.03;9.80;;;7.40;99.90;;;;;;5001377;28;20065;-63
2023/03/26 05:46:25;;;;;;;41.03;9.73;;;7.50;99.90;;;;;;4998276;28;20057;-80
2023/03/26 05:48:52;;;;;;;45.28;9.80;;;7.50;99.90;;;;;;5008978;28;20072;-62
2023/03/26 05:51:19;;;;;;;47.67;11.20;;;7.60;99.90;;;;;;5002320;28;20034;-62
2023/03/26 05:53:45;;;;;;;52.50;9.25;;;7.60;99.90;;;;;;5008262;28;20022;-62
2023/03/26 05:56:11;;;;;;;51.90;10.13;;;7.60;99.90;;;;;;5002158;28;20046;-62
2023/03/26 05:58:37;;;;;;;52.87;10.70;;;7.60;99.90;;;;;;5006860;28;20019;-62
2023/03/26 06:01:05;;;;;;;49.77;9.67;;;7.70;99.90;;;;;;5008876;28;20037;-63
2023/03/26 06:03:35;;;;;;;56.42;12.13;;;7.70;99.90;;;;;;5000535;28;20030;-79
2023/03/26 06:06:00;;;;;;;49.85;12.00;;;7.70;99.90;;;;;;4995394;28;20413;-62
2023/03/26 06:08:26;;;;;;;51.37;12.53;;;7.70;99.90;;;;;;4998514;28;20115;-62
2023/03/26 06:11:04;;;;;;;51.70;11.73;;;7.70;99.90;;;;;;5006783;28;20448;-62
2023/03/26 06:13:30;;;;;;;81.82;13.10;;;7.70;99.90;;;;;;5005354;28;20093;-62
2023/03/26 06:15:57;;;;;;;52.03;13.23;;;7.70;99.90;;;;;;5005080;28;20422;-62
2023/03/26 06:18:23;;;;;;;72.25;14.90;;;7.70;99.90;;;;;;5004178;28;20022;-81
2023/03/26 06:20:50;;;;;;;56.88;14.05;;;7.60;99.90;;;;;;5004162;28;20028;-62
2023/03/26 06:23:16;;;;;;;62.28;14.10;;;7.60;99.90;;;;;;4999738;28;20030;-62
2023/03/26 06:25:44;;;;;;;61.83;14.10;;;7.60;99.90;;;;;;5001196;28;20050;-62
2023/03/26 06:28:10;;;;;;;51.45;12.40;;;7.60;99.90;;;;;;4997285;28;20319;-63
2023/03/26 06:30:36;;;;;;;68.00;12.85;;;7.60;99.90;;;;;;5014130;28;20026;-62
2023/03/26 06:33:01;;;;;;;126.70;16.17;;;7.60;99.90;;;;;;4995081;28;20145;-62
2023/03/26 06:35:28;;;;;;;82.70;14.03;;;7.50;99.90;;;;;;5001600;28;20036;-78
2023/03/26 06:37:54;;;;;;;47.80;12.95;;;7.40;99.90;;;;;;4996278;28;20332;-62
2023/03/26 06:40:20;;;;;;;62.15;15.32;;;7.50;99.90;;;;;;4995021;28;20084;-62
2023/03/26 06:42:46;;;;;;;39.93;11.83;;;7.50;99.90;;;;;;4994828;28;20030;-62
2023/03/26 06:45:11;;;;;;;52.17;15.13;;;7.50;99.90;;;;;;5000282;28;20038;-62
2023/03/26 06:47:37;;;;;;;54.27;13.17;;;7.50;99.90;;;;;;4994869;28;20033;-62
2023/03/26 06:50:04;;;;;;;44.93;13.23;;;7.40;99.90;;;;;;4995278;28;20479;-62
2023/03/26 06:52:30;;;;;;;55.33;13.38;;;7.40;99.90;;;;;;5005252;28;20109;-79
2023/03/26 06:54:56;;;;;;;39.13;12.47;;;7.50;99.90;;;;;;5012553;28;20168;-62
2023/03/26 06:57:21;;;;;;;23.33;9.67;;;7.50;99.90;;;;;;5014621;28;20033;-62
2023/03/26 06:59:47;;;;;;;29.13;10.67;;;7.50;99.90;;;;;;5014318;28;20037;-62
2023/03/26 07:02:13;;;;;;;29.67;9.97;;;7.50;99.90;;;;;;5014761;28;20120;-69
2023/03/26 07:04:39;;;;;;;24.53;9.00;;;7.50;99.90;;;;;;5014645;28;20033;-62
2023/03/26 07:07:05;;;;;;;19.07;9.33;;;7.50;99.90;;;;;;5008413;28;20413;-62
2023/03/26 07:09:30;;;;;;;24.83;8.63;;;7.50;99.90;;;;;;4996444;28;20021;-62
2023/03/26 07:11:57;;;;;;;26.10;7.30;;;7.60;99.90;;;;;;4977914;28;20050;-62
2023/03/26 07:14:24;;;;;;;21.40;6.95;;;7.60;99.90;;;;;;4990929;28;20038;-62
2023/03/26 07:16:53;;;;;;;25.10;7.45;;;7.60;99.90;;;;;;5004012;28;20073;-62
2023/03/26 07:19:18;;;;;;;18.05;6.18;;;7.60;99.90;;;;;;5002439;28;20066;-62
2023/03/26 07:21:45;;;;;;;13.60;5.37;;;7.60;99.90;;;;;;5007458;28;20026;-62
2023/03/26 07:24:12;;;;;;;;;;;7.50;99.90;;;;;;5002806;28;20129;-62
2023/03/26 07:27:07;;;;;;;31.30;8.00;;;7.50;99.90;;;;;;4997355;28;19952;-78
2023/03/26 07:30:13;;;;;;;20.10;8.02;;;7.50;99.90;;;;;;5004628;28;20048;-62
2023/03/26 07:33:06;;;;;;;25.58;8.13;;;7.60;99.90;;;;;;4992826;28;20038;-62
2023/03/26 07:35:41;;;;;;;24.52;8.65;;;7.60;99.90;;;;;;5010075;28;20057;-62
2023/03/26 07:38:22;;;;;;;21.40;9.10;;;7.60;99.90;;;;;;4995810;28;20058;-62
2023/03/26 07:40:55;;;;;;;15.20;8.25;;;7.70;99.90;;;;;;5005778;28;20437;-62
2023/03/26 07:43:43;;;;;;;25.73;6.57;;;7.70;99.90;;;;;;4995575;28;20081;-62
2023/03/26 07:46:13;;;;;;;20.33;7.85;;;7.70;99.90;;;;;;4995967;28;20038;-62
2023/03/26 07:48:46;;;;;;;18.50;8.10;;;7.70;99.90;;;;;;4993172;28;20089;-62
2023/03/26 07:51:13;;;;;;;25.55;8.55;;;7.70;99.90;;;;;;5005308;28;20385;-80
2023/03/26 07:53:39;;;;;;;20.00;7.78;;;7.70;99.90;;;;;;4993143;28;20121;-62
2023/03/26 07:56:14;;;;;;;26.40;9.40;;;7.70;99.90;;;;;;5004999;28;20085;-62
2023/03/26 07:58:40;;;;;;;20.27;8.88;;;7.80;99.90;;;;;;5003598;28;20034;-80
2023/03/26 08:01:44;;;;;;;24.63;8.53;;;7.70;99.90;;;;;;5009859;28;20432;-63
2023/03/26 08:04:38;;;;;;;13.98;4.97;;;7.70;99.90;;;;;;5001704;28;20034;-62
2023/03/26 08:07:16;;;;;;;20.23;6.63;;;7.70;99.90;;;;;;5006268;28;20116;-62
2023/03/26 08:09:54;;;;;;;19.80;6.55;;;7.80;99.90;;;;;;5000032;28;20029;-62
2023/03/26 08:12:51;;;;;;;15.70;5.70;;;7.80;99.90;;;;;;5012075;28;20065;-62
2023/03/26 08:15:38;;;;;;;13.43;4.68;;;7.80;99.90;;;;;;5019541;28;20041;-62
2023/03/26 08:18:53;;;;;;;13.45;4.57;;;7.80;99.90;;;;;;4994983;28;20089;-62
2023/03/26 08:21:26;;;;;;;22.63;5.13;;;7.70;99.90;;;;;;4991155;28;20046;-80
2023/03/26 08:24:00;;;;;;;11.00;4.53;;;7.80;99.90;;;;;;5018417;28;20452;-62
2023/03/26 08:26:34;;;;;;;13.93;4.32;;;7.80;99.90;;;;;;5019531;28;20025;-63
2023/03/26 08:29:11;;;;;;;13.80;3.92;;;7.90;99.90;;;;;;5008861;28;20069;-62
2023/03/26 08:31:40;;;;;;;7.60;3.55;;;7.90;99.90;;;;;;5004752;28;20413;-62
2023/03/26 08:34:10;;;;;;;9.73;3.00;;;7.90;99.90;;;;;;5014791;28;20377;-63
2023/03/26 08:36:36;;;;;;;10.85;3.15;;;7.80;99.90;;;;;;5004742;28;20468;-62
2023/03/26 08:39:02;;;;;;;10.70;4.03;;;7.80;99.90;;;;;;5007379;28;20041;-62
2023/03/26 08:41:43;;;;;;;11.90;3.67;;;7.80;99.90;;;;;;5007154;28;20362;-63
2023/03/26 08:44:40;;;;;;;15.10;3.25;;;7.80;99.90;;;;;;5009149;28;20149;-62
2023/03/26 08:47:45;;;;;;;17.27;2.38;;;7.70;99.90;;;;;;5004061;28;20030;-62
2023/03/26 08:50:45;;;;;;;14.15;3.95;;;7.70;99.90;;;;;;4997120;28;20440;-62
2023/03/26 08:53:32;;;;;;;11.93;4.05;;;7.70;99.90;;;;;;4995810;28;20045;-62
2023/03/26 08:56:16;;;;;;;14.20;3.38;;;7.70;99.90;;;;;;5001572;28;20030;-63
2023/03/26 08:59:01;;;;;;;14.52;4.30;;;7.70;99.90;;;;;;5011949;28;20080;-62
2023/03/26 09:01:44;;;;;;;11.63;4.47;;;7.80;99.90;;;;;;4998752;28;20433;-62
2023/03/26 09:04:49;;;;;;;22.83;5.13;;;7.70;99.90;;;;;;5003878;28;20019;-62
2023/03/26 09:07:33;;;;;;;16.57;4.33;;;7.80;99.90;;;;;;5001587;28;20057;-62
2023/03/26 09:10:24;;;;;;;17.40;4.60;;;7.80;99.90;;;;;;4991070;28;20264;-63
2023/03/26 09:12:55;;;;;;;15.57;4.22;;;7.80;99.90;;;;;;4993754;28;20050;-62
2023/03/26 09:15:44;;;;;;;10.00;3.60;;;7.80;99.90;;;;;;4999135;28;20049;-62
2023/03/26 09:18:49;;;;;;;15.27;2.67;;;7.80;99.90;;;;;;5015111;28;20218;-63
2023/03/26 09:21:24;;;;;;;10.82;2.58;;;7.80;99.90;;;;;;5010128;28;20065;-62
2023/03/26 09:24:04;;;;;;;8.60;2.72;;;7.80;99.90;;;;;;5005997;28;20061;-62
2023/03/26 09:26:36;;;;;;;9.70;1.52;;;7.70;99.90;;;;;;4996821;28;20027;-62
2023/03/26 09:29:47;;;;;;;6.88;1.80;;;7.70;99.90;;;;;;4980898;28;20023;-61
2023/03/26 09:32:31;;;;;;;14.98;2.17;;;7.80;99.90;;;;;;5003631;28;20052;-62
2023/03/26 09:34:57;;;;;;;4.78;2.05;;;7.70;99.90;;;;;;4986106;28;20421;-62
2023/03/26 09:37:41;;;;;;;24.03;3.13;;;7.70;99.90;;;;;;5005235;28;20086;-62
2023/03/26 09:40:17;;;;;;;10.35;1.65;;;7.80;99.90;;;;;;5007568;28;20413;-63
2023/03/26 09:43:03;;;;;;;9.93;1.27;;;7.80;99.90;;;;;;5008201;28;20109;-62
2023/03/26 09:46:04;;;;;;;5.10;2.35;;;7.80;99.90;;;;;;5001488;28;20110;-63
2023/03/26 09:48:56;;;;;;;16.70;2.88;;;7.80;99.90;;;;;;5008359;28;20440;-81
2023/03/26 09:51:40;;;;;;;26.83;3.05;;;7.80;99.90;;;;;;5005500;28;20369;-62
2023/03/26 09:54:14;;;;;;;3.50;1.55;;;7.70;99.90;;;;;;4999524;28;20024;-63
2023/03/26 09:56:45;;;;;;;1.05;0.63;;;7.80;99.90;;;;;;4999597;28;20034;-62
2023/03/26 09:59:37;;;;;;;15.57;2.13;;;7.80;99.90;;;;;;4996751;28;20022;-63
2023/03/26 10:02:03;;;;;;;1.55;1.10;;;7.80;99.90;;;;;;4979053;28;20317;-62
2023/03/26 10:05:00;;;;;;;4.57;2.13;;;7.80;99.90;;;;;;4997399;28;20037;-62
2023/03/26 10:07:51;;;;;;;9.02;1.55;;;7.80;99.90;;;;;;5003543;28;20022;-62
2023/03/26 10:10:49;;;;;;;23.25;4.07;;;7.90;99.90;;;;;;4999183;28;20031;-62
2023/03/26 10:13:33;;;;;;;20.98;3.03;;;7.80;99.90;;;;;;4996172;28;20042;-63
2023/03/26 10:16:20;;;;;;;20.05;2.38;;;7.90;99.90;;;;;;5003464;28;20044;-62
2023/03/26 10:19:13;;;;;;;4.50;1.45;;;8.00;99.90;;;;;;4982791;28;20030;-62
2023/03/26 10:22:02;;;;;;;12.18;2.08;;;8.00;99.90;;;;;;4996576;28;20026;-62
2023/03/26 10:24:47;;;;;;;12.13;2.22;;;8.00;99.90;;;;;;4979220;28;20038;-62
2023/03/26 10:27:24;;;;;;;17.17;2.85;;;8.00;99.90;;;;;;4995821;28;20353;-63
2023/03/26 10:30:03;;;;;;;3.65;1.52;;;8.00;99.90;;;;;;5013974;28;20105;-62
2023/03/26 10:32:32;;;;;;;11.98;1.05;;;8.10;99.90;;;;;;4997973;28;20022;-62
2023/03/26 10:35:30;;;;;;;16.20;3.10;;;8.00;99.90;;;;;;4995890;28;20027;-62
2023/03/26 10:38:15;;;;;;;14.90;3.05;;;8.10;99.90;;;;;;4995968;28;20030;-62
2023/03/26 10:40:50;;;;;;;15.40;3.10;;;8.10;99.90;;;;;;4999770;28;20294;-80
2023/03/26 10:43:28;;;;;;;11.98;2.47;;;8.10;99.90;;;;;;4995593;28;20038;-62
2023/03/26 10:46:21;;;;;;;8.50;1.92;;;8.00;99.90;;;;;;5003719;28;20026;-62
2023/03/26 10:49:32;;;;;;;9.93;1.73;;;8.10;99.90;;;;;;4996675;28;20026;-62
2023/03/26 10:52:02;;;;;;;7.85;2.10;;;8.20;99.90;;;;;;4993137;28;20046;-62
2023/03/26 10:54:33;;;;;;;5.90;2.33;;;8.30;99.90;;;;;;4995745;28;20113;-62
2023/03/26 10:57:02;;;;;;;12.02;2.63;;;8.30;99.90;;;;;;4995399;28;20081;-62
2023/03/26 10:59:29;;;;;;;3.15;1.08;;;8.30;99.90;;;;;;5000190;28;20025;-62
2023/03/26 11:02:24;;;;;;;5.35;1.23;;;8.30;99.90;;;;;;4996905;28;20085;-62
2023/03/26 11:04:59;;;;;;;18.50;3.78;;;8.20;99.90;;;;;;4988316;28;20042;-62
2023/03/26 11:07:37;;;;;;;5.00;1.50;;;8.30;99.90;;;;;;4995303;28;20058;-62
2023/03/26 11:10:34;;;;;;;6.13;1.50;;;8.30;99.90;;;;;;5009151;28;20021;-61
2023/03/26 11:13:33;;;;;;;8.00;1.73;;;8.40;99.90;;;;;;4990887;28;20377;-62
2023/03/26 11:16:08;;;;;;;8.68;2.10;;;8.40;99.90;;;;;;5007402;28;20068;-61
2023/03/26 11:18:38;;;;;;;11.52;1.90;;;8.40;99.90;;;;;;4995051;28;20322;-61
2023/03/26 11:21:14;;;;;;;13.93;2.75;;;8.50;99.90;;;;;;5000883;28;20108;-62
2023/03/26 11:23:58;;;;;;;3.55;0.52;;;8.60;99.90;;;;;;4999197;28;20021;-62
2023/03/26 11:26:42;;;;;;;15.13;2.22;;;8.70;99.90;;;;;;5001359;28;20033;-61
2023/03/26 11:29:27;;;;;;;19.88;2.53;;;8.80;99.90;;;;;;5012832;28;20045;-61
2023/03/26 11:32:01;;;;;;;15.02;1.60;;;8.90;99.90;;;;;;4993110;28;20030;-83
2023/03/26 11:34:33;;;;;;;5.18;1.17;;;8.90;99.90;;;;;;4998349;28;20418;-62
2023/03/26 11:37:02;;;;;;;16.17;2.40;;;8.70;99.90;;;;;;5009295;28;20312;-62
2023/03/26 11:39:38;;;;;;;13.57;1.25;;;8.60;99.90;;;;;;5012702;28;20110;-62
2023/03/26 11:42:10;;;;;;;4.53;1.23;;;8.70;99.90;;;;;;4998410;28;20125;-61
2023/03/26 11:44:45;;;;;;;4.57;2.40;;;8.60;99.90;;;;;;4997544;28;20035;-61
2023/03/26 11:47:14;;;;;;;13.52;2.10;;;8.70;99.90;;;;;;5002754;28;20030;-62
2023/03/26 11:49:43;;;;;;;13.32;1.67;;;8.60;99.90;;;;;;4998179;28;20034;-62
2023/03/26 11:52:14;;;;;;;4.20;1.13;;;8.60;99.90;;;;;;4998222;28;20394;-77
2023/03/26 11:54:39;;;;;;;8.38;1.33;;;8.60;99.90;;;;;;5012355;28;20018;-61
2023/03/26 11:57:11;;;;;;;7.00;1.03;;;8.60;99.90;;;;;;5002613;28;20052;-62
2023/03/26 11:59:50;;;;;;;6.53;2.00;;;8.70;99.90;;;;;;4998401;28;20400;-79
2023/03/26 12:02:24;;;;;;;15.48;2.33;;;8.80;99.90;;;;;;4998474;28;20417;-62
2023/03/26 12:04:54;;;;;;;9.52;1.95;;;8.80;99.90;;;;;;4998355;28;20041;-62
2023/03/26 12:07:31;;;;;;;4.68;0.75;;;8.70;99.90;;;;;;5008052;28;20121;-61
2023/03/26 12:10:00;;;;;;;20.15;2.25;;;8.80;99.90;;;;;;5001818;28;20093;-63
2023/03/26 12:12:31;;;;;;;2.95;1.23;;;8.90;99.90;;;;;;4998033;28;20117;-62
2023/03/26 12:15:00;;;;;;;15.75;2.35;;;8.90;99.90;;;;;;4998089;28;20045;-62
2023/03/26 12:17:32;;;;;;;2.35;0.82;;;9.00;99.90;;;;;;4998667;28;20325;-62
2023/03/26 12:19:59;;;;;;;8.95;2.05;;;8.90;99.90;;;;;;5012212;28;20128;-61
2023/03/26 12:22:31;;;;;;;3.38;0.88;;;8.80;99.90;;;;;;5004744;28;20196;-61
2023/03/26 12:25:21;;;;;;;3.88;0.75;;;8.70;99.90;;;;;;5004382;28;20117;-61
2023/03/26 12:27:55;;;;;;;8.55;1.75;;;8.70;99.90;;;;;;4995109;28;20048;-61
2023/03/26 12:30:24;;;;;;;5.93;1.30;;;8.60;99.90;;;;;;5015261;28;20026;-61
2023/03/26 12:32:54;;;;;;;5.78;1.23;;;8.60;99.90;;;;;;4981098;28;20033;-62
2023/03/26 12:35:26;;;;;;;0.93;0.60;;;8.60;99.90;;;;;;4997668;28;20413;-61
2023/03/26 12:37:53;;;;;;;6.05;1.17;;;8.40;99.90;;;;;;4998687;28;20038;-61
2023/03/26 12:40:33;;;;;;;;;;;8.50;99.90;;;;;;5002878;28;20030;-62
2023/03/26 12:43:20;;;;;;;6.43;1.15;;;8.50;99.90;;;;;;4997857;28;19910;-61
2023/03/26 12:45:52;;;;;;;7.20;1.23;;;8.40;99.90;;;;;;4997499;28;20026;-62
2023/03/26 12:48:18;;;;;;;3.83;1.65;;;8.50;99.90;;;;;;4997670;28;20325;-61
2023/03/26 12:51:15;;;;;;;2.23;0.80;;;8.40;99.90;;;;;;5001454;28;20026;-69
2023/03/26 12:53:49;;;;;;;6.72;1.52;;;8.40;99.90;;;;;;4980312;28;20110;-61
2023/03/26 12:56:50;;;;;;;10.57;0.95;;;8.40;99.90;;;;;;4997696;28;20026;-61
2023/03/26 12:59:28;;;;;;;7.38;1.00;;;8.40;99.90;;;;;;4945528;28;20347;-76
2023/03/26 13:02:05;;;;;;;6.25;0.77;;;8.40;99.90;;;;;;4956293;28;20023;-61
2023/03/26 13:04:47;;;;;;;19.30;1.13;;;8.40;99.90;;;;;;4954022;28;20040;-62
2023/03/26 13:07:15;;;;;;;11.70;2.03;;;8.40;99.90;;;;;;4925887;29;20085;-63
2023/03/26 13:09:41;;;;;;;3.92;0.70;;;8.40;99.90;;;;;;4929723;29;20031;-62
2023/03/26 13:12:28;;;;;;;1.50;0.60;;;8.30;99.90;;;;;;4953111;29;20373;-62
2023/03/26 13:15:14;;;;;;;16.48;1.00;;;8.30;99.90;;;;;;4954309;29;20042;-61
2023/03/26 13:17:54;;;;;;;1.88;1.13;;;8.40;99.90;;;;;;4943552;29;20039;-62
2023/03/26 13:20:38;;;;;;;7.93;0.77;;;8.40;99.90;;;;;;4954111;28;20035;-62
2023/03/26 13:23:41;;;;;;;10.75;1.65;;;8.40;99.90;;;;;;4955797;29;20103;-62